METAR AND TAF INFORMATION
METAR FOR KORS
ADDS - METARS form results

(1708 UTC 05 April 2020)
Data provider http://aviationweather.gov/metar/data/
 
METAR text: KORS 051655Z AUTO VRB06G11KT 10SM OVC080 07/M02 A2968 RMK AO2
Conditions at: KORS (EASTSOUND/ORCAS , WA, US) observed 1655 UTC 05 April 2020
Temperature: 7.0°C (45°F)
Dewpoint: -2.0°C (28°F) [RH = 53%]
Pressure (altimeter): 29.68 inches Hg (1005.2 mb)
Winds: variable direction winds at 7 MPH (6 knots; 3.1 m/s)
gusting to 13 MPH (11 knots; 5.7 m/s)
Visibility: 10 or more miles (16+ km)
Ceiling: 8000 feet AGL
Clouds: overcast cloud deck at 8000 feet AGL
Weather: automated observation with no human augmentation;
there may or may not be significant weather present at this time

METAR text: KORS 051635Z AUTO 02008KT 340V050 10SM SCT070 BKN080 BKN090 07/M02 A2967 RMK AO2
Conditions at: KORS (EASTSOUND/ORCAS , WA, US) observed 1635 UTC 05 April 2020
Temperature: 7.0°C (45°F)
Dewpoint: -2.0°C (28°F) [RH = 53%]
Pressure (altimeter): 29.67 inches Hg (1004.8 mb)
Winds: from the NNE (20 degrees) at 9 MPH (8 knots; 4.1 m/s)
Visibility: 10 or more miles (16+ km)
Ceiling: 8000 feet AGL
Clouds: scattered clouds at 7000 feet AGL
broken clouds at 8000 feet AGL
broken clouds at 9000 feet AGL
Weather: automated observation with no human augmentation;
there may or may not be significant weather present at this time

METAR text: KORS 051615Z AUTO VRB04G10KT 10SM SCT070 BKN080 07/M02 A2967 RMK AO2
Conditions at: KORS (EASTSOUND/ORCAS , WA, US) observed 1615 UTC 05 April 2020
Temperature: 7.0°C (45°F)
Dewpoint: -2.0°C (28°F) [RH = 53%]
Pressure (altimeter): 29.67 inches Hg (1004.8 mb)
Winds: variable direction winds at 5 MPH (4 knots; 2.1 m/s)
gusting to 12 MPH (10 knots; 5.1 m/s)
Visibility: 10 or more miles (16+ km)
Ceiling: 8000 feet AGL
Clouds: scattered clouds at 7000 feet AGL
broken clouds at 8000 feet AGL
Weather: automated observation with no human augmentation;
there may or may not be significant weather present at this time

 AIRPORT MAP

 RUNWAY INFORMATION
Runway 16 Runway length 2900 ft Runway width 60 ft
Runway elevation 31 ft Runway displaced threshold 0 ft Runway heading 0
Runway 34 Runway length 2900 ft Runway width 60 ft
Runway elevation 31 ft Runway displaced threshold 0 ft Runway heading 0

 AIRPORT FREQUENCIES

 AIRPORT NEAR NAVIGATION AIDS



Powered by Virtual Airlines Manager [v2.6.2]

Impressum | Datenschutz